Time;durP1;ratioP1;P1;durP2;ratioP2;P2;SDS_P1;SDS_P2;PMS_P1;PMS_P2;Temp;Humidity;BMP_temperature;BMP_pressure;BME280_temperature;BME280_humidity;BME280_pressure;Samples;Min_cycle;Max_cycle;Signal;HPM_P1;HPM_P2
2022/11/07 00:00:13;;;;;;;10.77;5.30;;;;;;;14.79;100.00;35693.16;5072294;28;20275;-62
2022/11/07 00:02:40;;;;;;;6.00;4.57;;;;;;;14.91;100.00;36026.38;5072488;28;20227;-60
2022/11/07 00:05:08;;;;;;;7.40;5.07;;;;;;;14.82;100.00;36345.84;5072205;28;20220;-62
2022/11/07 00:07:36;;;;;;;7.60;4.20;;;;;;;14.79;100.00;36994.44;5071244;28;20232;-63
2022/11/07 00:10:04;;;;;;;5.93;4.53;;;;;;;14.49;100.00;35024.75;5072517;28;20202;-60
2022/11/07 00:12:34;;;;;;;11.27;5.10;;;;;;;14.65;100.00;32110.34;5072086;28;20184;-61
2022/11/07 00:15:03;;;;;;;10.33;4.63;;;;;;;14.64;100.00;31135.66;5072022;28;20185;-60
2022/11/07 00:17:30;;;;;;;5.53;4.77;;;;;;;14.74;100.00;33414.72;5054615;28;20184;-61
2022/11/07 00:19:58;;;;;;;6.67;4.77;;;;;;;14.66;100.00;36010.03;5072450;28;20285;-61
2022/11/07 00:22:25;;;;;;;10.30;4.90;;;;;;;14.78;100.00;36343.25;5072299;28;20636;-63
2022/11/07 00:24:52;;;;;;;6.80;4.80;;;;;;;14.76;100.00;42200.78;5072094;28;20228;-60
2022/11/07 00:27:20;;;;;;;10.90;5.43;;;;;;;14.91;100.00;43516.03;5072558;28;20555;-63
2022/11/07 00:29:47;;;;;;;4.80;4.37;;;;;;;14.87;100.00;48079.78;5072391;28;20208;-61
2022/11/07 00:32:15;;;;;;;10.03;4.97;;;;;;;14.64;100.00;44147.16;5071811;28;20259;-61
2022/11/07 00:34:43;;;;;;;4.90;4.10;;;;;;;14.82;100.00;45139.31;5071925;28;20191;-62
2022/11/07 00:37:10;;;;;;;5.50;4.60;;;;;;;14.91;100.00;46125.03;5071779;28;20181;-61
2022/11/07 00:39:38;;;;;;;11.10;4.80;;;;;;;14.79;100.00;47094.06;5071865;28;20268;-63
2022/11/07 00:42:05;;;;;;;5.00;4.50;;;;;;;14.82;100.00;44160.72;5072370;28;20561;-60
2022/11/07 00:44:32;;;;;;;5.33;4.70;;;;;;;14.68;100.00;42846.78;5071601;28;20200;-64
2022/11/07 00:47:01;;;;;;;9.67;4.80;;;;;;;14.65;100.00;41867.25;5072526;28;20590;-62
2022/11/07 00:49:30;;;;;;;5.17;4.67;;;;;;;14.66;100.00;39588.81;5072165;28;20286;-63
2022/11/07 00:51:58;;;;;;;5.50;4.97;;;;;;;14.65;100.00;40564.69;5071956;28;20669;-62
2022/11/07 00:54:25;;;;;;;10.43;5.23;;;;;;;14.51;100.00;42834.31;5071885;28;20283;-61
2022/11/07 00:56:52;;;;;;;6.37;4.67;;;;;;;14.62;100.00;46102.03;5071774;28;20220;-63
2022/11/07 00:59:19;;;;;;;6.07;4.97;;;;;;;14.77;100.00;48397.75;5054180;28;20193;-62
2022/11/07 01:01:50;;;;;;;12.77;4.80;;;;;;;14.92;100.00;50042.78;5072205;28;20552;-61
2022/11/07 01:07:03;;;;;;;5.37;4.97;;;;;;;14.82;100.00;51341.09;5071779;28;20191;-61
2022/11/07 01:09:30;;;;;;;6.53;4.93;;;;;;;14.69;100.00;52963.06;5071719;28;20196;-63
2022/11/07 01:11:58;;;;;;;5.27;4.77;;;;;;;14.81;100.00;52646.81;5071575;28;20207;-61
2022/11/07 01:14:26;;;;;;;13.13;5.53;;;;;;;14.80;100.00;53953.91;5071973;28;20212;-64
2022/11/07 01:16:53;;;;;;;5.50;4.23;;;;;;;14.72;100.00;54600.31;5071606;28;20201;-61
2022/11/07 01:19:22;;;;;;;7.87;4.93;;;;;;;14.73;100.00;56236.50;5056685;28;20659;-63
2022/11/07 01:21:49;;;;;;;6.20;4.80;;;;;;;14.70;100.00;53290.34;5075560;28;20204;-63
2022/11/07 01:24:19;;;;;;;5.40;4.13;;;;;;;14.70;100.00;53290.81;5075542;28;20274;-63
2022/11/07 01:26:47;;;;;;;6.60;4.77;;;;;;;14.66;100.00;50673.16;5075389;28;20188;-60
2022/11/07 01:29:15;;;;;;;7.00;4.60;;;;;;;14.43;100.00;49021.53;5075618;28;20211;-62
2022/11/07 01:31:43;;;;;;;10.90;5.37;;;;;;;14.52;100.00;43812.03;5075459;28;20236;-62
2022/11/07 01:34:10;;;;;;;4.30;4.00;;;;;;;14.26;100.00;42489.91;5075207;28;20267;-61
2022/11/07 01:36:38;;;;;;;11.57;5.40;;;;;;;14.25;100.00;40536.03;5075084;28;20200;-63
2022/11/07 01:39:05;;;;;;;5.07;4.23;;;;;;;14.36;100.00;39242.50;5075181;28;20208;-60
2022/11/07 01:41:35;;;;;;;5.50;4.80;;;;;;;14.35;100.00;38266.41;5075420;28;20269;-62
2022/11/07 01:44:04;;;;;;;11.67;5.20;;;;;;;14.23;100.00;40859.97;5074860;28;20297;-61
2022/11/07 01:46:33;;;;;;;7.37;5.33;;;;;;;14.41;100.00;43152.09;5075448;28;20288;-61
2022/11/07 01:49:07;;;;;;;9.93;4.53;;;;;;;14.50;100.00;43484.69;5075070;28;20184;-63
2022/11/07 01:51:41;;;;;;;6.53;4.60;;;;;;;14.39;100.00;44127.78;5075137;28;20208;-62
2022/11/07 01:54:10;;;;;;;7.80;4.80;;;;;;;14.44;100.00;44457.88;5075821;28;20654;-62
2022/11/07 01:56:41;;;;;;;5.13;4.63;;;;;;;14.50;100.00;44788.06;5074936;28;20205;-60
2022/11/07 01:59:11;;;;;;;6.70;4.90;;;;;;;14.59;100.00;48056.69;5074579;28;20185;-62
2022/11/07 02:01:39;;;;;;;6.30;4.50;;;;;;;14.45;100.00;51634.56;5074717;28;20206;-62
2022/11/07 02:04:07;;;;;;;4.93;4.13;;;;;;;14.39;100.00;51955.72;5074692;28;20208;-61
2022/11/07 02:06:39;;;;;;;5.23;4.40;;;;;;;14.40;100.00;53263.50;5074807;28;20189;-62
2022/11/07 02:09:08;;;;;;;6.87;4.63;;;;;;;14.47;100.00;55230.38;5074825;28;20284;-63
2022/11/07 02:11:35;;;;;;;5.20;4.80;;;;;;;14.66;100.00;56229.69;5075229;28;20226;-63
2022/11/07 02:14:04;;;;;;;7.00;4.60;;;;;;;14.63;100.00;57535.84;5074615;28;20212;-60
2022/11/07 02:16:32;;;;;;;7.70;5.30;;;;;;;14.51;100.00;51313.41;5074605;28;20185;-61
2022/11/07 02:19:00;;;;;;;5.93;4.63;;;;;;;14.53;100.00;50009.22;5074539;28;20262;-60
2022/11/07 02:21:36;;;;;;;8.47;4.73;;;;;;;14.60;100.00;56223.84;5074872;28;20685;-62
2022/11/07 02:24:17;;;;;;;8.37;5.20;;;;;;;14.47;100.00;50983.75;5074490;28;20204;-64
2022/11/07 02:26:45;;;;;;;8.47;5.67;;;;;;;14.52;100.00;52621.19;5074819;28;20200;-60
2022/11/07 02:29:14;;;;;;;5.83;5.30;;;;;;;14.55;100.00;53930.50;5074515;28;20614;-64
2022/11/07 02:31:41;;;;;;;5.57;5.00;;;;;;;14.59;100.00;56223.38;5073518;28;20240;-63
2022/11/07 02:34:10;;;;;;;5.10;4.67;;;;;;;14.58;100.00;58839.34;5074059;28;20197;-61
2022/11/07 02:36:38;;;;;;;8.27;4.97;;;;;;;14.74;100.00;61475.22;5074433;28;20196;-64
2022/11/07 02:39:05;;;;;;;5.67;5.10;;;;;;;14.80;100.00;65088.50;5073855;28;20265;-60
2022/11/07 02:41:36;;;;;;;11.43;4.90;;;;;;;14.84;100.00;64764.38;5074050;28;20195;-61
2022/11/07 02:44:09;;;;;;;5.83;4.70;;;;;;;14.71;100.00;63438.94;5073950;28;20277;-65
2022/11/07 02:46:38;;;;;;;11.67;5.53;;;;;;;14.29;100.00;56521.06;5073902;28;20215;-62
2022/11/07 02:49:05;;;;;;;5.87;5.30;;;;;;;14.68;100.00;56885.94;5074125;28;20583;-61
2022/11/07 02:51:33;;;;;;;9.33;5.77;;;;;;;14.43;100.00;53593.00;5074218;28;20552;-67
2022/11/07 02:54:01;;;;;;;6.23;5.10;;;;;;;14.57;100.00;49033.50;5073770;28;20212;-62
2022/11/07 02:56:28;;;;;;;7.13;5.47;;;;;;;14.71;100.00;54271.94;5074026;28;20208;-59
2022/11/07 02:58:57;;;;;;;6.00;4.63;;;;;;;14.59;100.00;56549.97;5073690;28;20185;-63
2022/11/07 03:01:25;;;;;;;8.30;4.80;;;;;;;14.68;100.00;53942.69;5073897;28;20232;-61
2022/11/07 03:03:53;;;;;;;5.83;5.33;;;;;;;14.58;100.00;50993.09;5073470;28;20199;-63
2022/11/07 03:06:24;;;;;;;5.83;5.00;;;;;;;14.71;100.00;50024.91;5073627;28;20211;-63
2022/11/07 03:08:52;;;;;;;5.70;4.97;;;;;;;14.55;100.00;50011.41;5073779;28;20585;-63
2022/11/07 03:11:20;;;;;;;8.83;4.87;;;;;;;14.55;100.00;45769.94;5073615;28;20697;-64
2022/11/07 03:13:48;;;;;;;9.57;4.77;;;;;;;14.41;100.00;48041.16;5073666;28;20200;-60
2022/11/07 03:16:18;;;;;;;8.07;5.17;;;;;;;14.51;100.00;46418.81;5073357;28;20287;-62
2022/11/07 03:18:47;;;;;;;5.43;4.90;;;;;;;14.59;100.00;48708.88;5073362;28;20663;-60
2022/11/07 03:21:16;;;;;;;11.80;6.10;;;;;;;14.48;100.00;49678.91;5065381;28;20579;-64
2022/11/07 03:23:44;;;;;;;8.03;6.43;;;;;;;14.61;100.00;50669.66;5073081;28;20206;-63
2022/11/07 03:26:11;;;;;;;10.23;5.80;;;;;;;14.69;100.00;52636.28;5072990;28;20294;-62
2022/11/07 03:28:42;;;;;;;7.20;5.60;;;;;;;14.46;100.00;53922.09;5073108;28;20300;-63
2022/11/07 03:31:09;;;;;;;7.17;5.67;;;;;;;14.72;100.00;55581.34;5072710;28;20231;-63
2022/11/07 03:33:39;;;;;;;6.47;5.23;;;;;;;14.73;100.00;57218.06;5072827;28;20254;-62
2022/11/07 03:36:06;;;;;;;5.60;5.10;;;;;;;14.70;100.00;58524.19;5072913;28;20204;-61
2022/11/07 03:38:34;;;;;;;7.20;5.10;;;;;;;14.56;100.00;55239.44;5073055;28;20192;-62
2022/11/07 03:41:01;;;;;;;8.37;5.50;;;;;;;14.76;100.00;52315.44;5072872;28;20640;-60
2022/11/07 03:43:28;;;;;;;8.83;6.47;;;;;;;14.78;100.00;55586.63;5073052;28;20185;-60
2022/11/07 03:45:56;;;;;;;6.03;5.50;;;;;;;14.75;100.00;54276.16;5072297;28;20228;-62
2022/11/07 03:48:23;;;;;;;6.03;5.53;;;;;;;14.74;100.00;56564.66;5073092;28;20609;-60
2022/11/07 03:50:52;;;;;;;6.83;6.03;;;;;;;14.74;100.00;57545.81;5072810;28;20192;-60
2022/11/07 03:53:19;;;;;;;9.50;5.80;;;;;;;14.60;100.00;56551.41;5072554;28;20199;-62
2022/11/07 03:55:47;;;;;;;9.83;6.33;;;;;;;14.70;100.00;51656.59;5072429;28;20189;-60
2022/11/07 03:58:15;;;;;;;10.07;6.13;;;;;;;14.67;100.00;51001.09;5072206;28;20220;-61
2022/11/07 04:00:46;;;;;;;9.70;6.13;;;;;;;14.68;100.00;52308.63;5072429;28;20188;-62
2022/11/07 04:03:13;;;;;;;11.10;5.50;;;;;;;14.66;100.00;53940.78;5072609;28;20616;-61
2022/11/07 04:05:41;;;;;;;6.13;5.73;;;;;;;14.34;100.00;52277.72;5072262;28;20209;-64
2022/11/07 04:08:10;;;;;;;9.00;5.73;;;;;;;14.66;100.00;52306.81;5072316;28;20291;-63
2022/11/07 04:10:37;;;;;;;7.43;5.83;;;;;;;14.46;100.00;54248.88;5072208;28;20185;-61
2022/11/07 04:18:49;;;;;;;6.20;5.60;;;;;;;14.65;100.00;57537.34;5011089;28;20198;-60
2022/11/07 04:21:16;;;;;;;6.47;5.97;;;;;;;14.67;100.00;56230.19;5010387;28;20560;-60
2022/11/07 04:23:45;;;;;;;12.23;6.20;;;;;;;14.62;100.00;52303.63;5037469;28;20192;-62
2022/11/07 04:29:01;;;;;;;9.77;6.40;;;;;;;14.38;100.00;45430.81;5072112;28;20673;-60
2022/11/07 04:31:28;;;;;;;7.50;5.23;;;;;;;14.48;100.00;44786.91;5071889;28;20235;-63
2022/11/07 04:33:55;;;;;;;9.53;6.87;;;;;;;14.69;100.00;47412.06;5072318;28;20650;-61
2022/11/07 04:36:22;;;;;;;6.53;6.07;;;;;;;14.51;100.00;48049.56;5071990;28;20200;-60
2022/11/07 04:38:52;;;;;;;7.63;7.13;;;;;;;14.61;100.00;47732.09;5071812;28;20185;-61
2022/11/07 04:41:20;;;;;;;6.40;5.97;;;;;;;14.68;100.00;52308.63;5071972;28;20214;-63
2022/11/07 04:43:48;;;;;;;6.87;6.27;;;;;;;14.59;100.00;53280.63;5071915;28;20216;-61
2022/11/07 04:46:16;;;;;;;7.37;6.87;;;;;;;14.60;100.00;56223.84;5063942;28;20311;-64
2022/11/07 04:48:44;;;;;;;10.50;6.87;;;;;;;14.69;100.00;56232.63;5072398;28;20208;-60
2022/11/07 04:51:14;;;;;;;8.00;6.90;;;;;;;14.47;100.00;52942.84;5071654;28;20231;-60
2022/11/07 04:53:41;;;;;;;13.03;7.03;;;;;;;14.67;100.00;53287.56;5075449;28;20192;-60
2022/11/07 04:56:11;;;;;;;9.60;7.07;;;;;;;14.69;100.00;52962.59;5078252;28;20187;-63
2022/11/07 04:58:38;;;;;;;10.83;6.87;;;;;;;14.55;100.00;45117.97;5078215;28;20214;-60
2022/11/07 05:01:05;;;;;;;7.60;6.77;;;;;;;14.60;100.00;42189.25;5078692;28;20623;-62
2022/11/07 05:03:33;;;;;;;7.73;7.20;;;;;;;14.65;100.00;41215.91;5078462;28;20260;-63
2022/11/07 05:06:00;;;;;;;17.83;6.70;;;;;;;14.68;100.00;43498.47;5078161;28;20204;-62
2022/11/07 05:08:28;;;;;;;7.40;6.90;;;;;;;14.37;100.00;34367.22;5078462;28;20211;-60
2022/11/07 05:10:56;;;;;;;13.47;7.17;;;;;;;14.45;100.00;28205.53;5078278;28;20196;-62
2022/11/07 05:13:26;;;;;;;13.73;7.00;;;;;;;14.35;100.00;29172.94;5077993;28;20283;-62
2022/11/07 05:15:53;;;;;;;13.00;6.80;;;;;;;14.47;100.00;26585.28;5078539;28;20228;-61
2022/11/07 05:18:23;;;;;;;6.63;6.17;;;;;;;14.44;100.00;25611.88;5078463;28;20528;-63
2022/11/07 05:20:50;;;;;;;17.40;7.33;;;;;;;14.45;100.00;23344.97;5078644;28;20669;-60
2022/11/07 05:23:17;;;;;;;17.10;8.17;;;;;;;14.51;100.00;24318.97;5078174;28;20188;-62
2022/11/07 05:25:47;;;;;;;10.03;6.57;;;;;;;14.47;100.00;26261.41;5077924;28;20220;-63
2022/11/07 05:28:16;;;;;;;7.50;6.43;;;;;;;14.32;100.00;22044.41;5078203;28;20193;-60
2022/11/07 05:30:46;;;;;;;11.27;7.70;;;;;;;14.12;100.00;22036.38;5077931;28;20188;-63
2022/11/07 05:33:16;;;;;;;7.57;6.93;;;;;;;14.42;100.00;24639.06;5078134;28;20220;-60
2022/11/07 05:35:44;;;;;;;10.50;6.80;;;;;;;14.64;100.00;25945.19;5078029;28;20275;-62
2022/11/07 05:38:14;;;;;;;11.57;6.87;;;;;;;14.73;100.00;27246.53;5078170;28;20204;-62
2022/11/07 05:40:42;;;;;;;8.47;6.57;;;;;;;14.74;100.00;27247.03;5078110;28;20224;-63
2022/11/07 05:43:12;;;;;;;11.10;6.17;;;;;;;14.59;100.00;22379.34;5077890;28;20203;-61
2022/11/07 05:45:40;;;;;;;8.53;6.20;;;;;;;14.63;100.00;21733.47;5078303;28;20295;-61
2022/11/07 05:48:10;;;;;;;6.93;6.33;;;;;;;14.47;100.00;20432.78;5078216;28;20197;-62
2022/11/07 05:50:39;;;;;;;13.13;7.30;;;;;;;14.70;100.00;18823.63;5077838;28;20184;-60
2022/11/07 05:53:07;;;;;;;13.67;6.60;;;;;;;14.67;100.00;19792.94;5077934;28;20200;-63
2022/11/07 05:55:34;;;;;;;11.87;7.13;;;;;;;14.55;100.00;14616.56;5077916;28;20193;-64
2022/11/07 05:58:08;;;;;;;9.70;6.33;;;;;;;14.38;100.00;11384.19;5078270;28;20200;-64
2022/11/07 06:00:35;;;;;;;8.03;7.23;;;;;;;14.26;100.00;7190.94;5078310;28;20185;-62
2022/11/07 06:03:02;;;;;;;14.43;7.33;;;;;;;14.23;100.00;1719.16;5077989;28;20211;-60
2022/11/07 06:05:31;;;;;;;10.17;6.50;;;;;;;14.27;100.00;2041.16;5074211;28;20299;-61
2022/11/07 06:07:58;;;;;;;9.13;7.23;;;;;;;14.38;100.00;2363.81;5074855;28;20602;-60
2022/11/07 06:10:26;;;;;;;7.67;6.40;;;;;;;14.45;100.00;3973.53;5074418;28;20608;-63
2022/11/07 06:13:00;;;;;;;7.73;7.07;;;;;;;14.41;100.00;3973.06;5074577;28;20200;-60
2022/11/07 06:15:30;;;;;;;11.43;6.60;;;;;;;14.42;100.00;2364.13;5074731;28;20627;-62
2022/11/07 06:18:00;;;;;;;8.20;6.53;;;;;;;14.51;100.00;3008.63;5074757;28;20536;-65
2022/11/07 06:20:28;;;;;;;7.87;7.07;;;;;;;14.56;100.00;3330.97;5074655;28;20642;-62
2022/11/07 06:22:58;;;;;;;7.87;7.03;;;;;;;14.62;100.00;3975.56;5074452;28;20234;-60
2022/11/07 06:25:26;;;;;;;9.57;6.60;;;;;;;14.62;100.00;3975.59;5074049;28;20258;-63
2022/11/07 06:27:58;;;;;;;7.37;6.60;;;;;;;14.32;100.00;3328.44;5074474;28;20197;-63
2022/11/07 06:30:25;;;;;;;10.83;6.70;;;;;;;14.15;100.00;3005.00;5074297;28;20212;-60
2022/11/07 06:32:53;;;;;;;9.47;6.20;;;;;;;14.28;100.00;-2137.31;5074421;28;20722;-62
2022/11/07 06:35:21;;;;;;;6.63;6.00;;;;;;;14.27;100.00;-2137.34;5074281;28;20196;-64
2022/11/07 06:37:48;;;;;;;11.40;7.10;;;;;;;14.32;100.00;-2458.50;5074055;28;20197;-63
2022/11/07 06:40:17;;;;;;;6.83;6.37;;;;;;;14.40;100.00;-2137.09;5074237;28;20658;-62
2022/11/07 06:42:44;;;;;;;10.63;6.90;;;;;;;14.45;100.00;-851.50;5074282;28;20181;-59
2022/11/07 06:45:12;;;;;;;9.10;6.30;;;;;;;14.24;100.00;754.66;5074209;28;20208;-60
2022/11/07 06:47:39;;;;;;;8.93;7.10;;;;;;;14.46;100.00;3008.06;5073850;28;20655;-58
2022/11/07 06:50:07;;;;;;;6.97;6.50;;;;;;;14.57;100.00;5585.19;5074508;28;20204;-60
2022/11/07 06:52:34;;;;;;;10.13;5.87;;;;;;;14.60;100.00;6552.22;5073827;28;20262;-60
2022/11/07 06:55:04;;;;;;;20.13;12.63;;;;;;;14.34;100.00;8803.63;5073676;28;20189;-62
2022/11/07 06:57:32;;;;;;;11.00;7.53;;;;;;;14.74;100.00;10424.47;5073513;28;20288;-62
2022/11/07 07:00:01;;;;;;;11.23;7.27;;;;;;;14.93;100.00;12366.00;5073668;28;20197;-58
2022/11/07 07:02:28;;;;;;;38.73;23.93;;;;;;;15.12;100.00;16249.75;5073417;28;20631;-63
2022/11/07 07:04:55;;;;;;;14.30;10.40;;;;;;;15.25;100.00;20786.31;5073317;28;20298;-60
2022/11/07 07:07:24;;;;;;;6.57;6.03;;;;;;;15.28;100.00;31171.31;5073087;28;20193;-63
2022/11/07 07:09:51;;;;;;;10.07;7.67;;;;;;;15.39;100.00;33778.94;5055323;28;20220;-60
2022/11/07 07:12:18;;;;;;;6.50;5.90;;;;;;;15.29;100.00;37352.59;5073032;28;20195;-60
2022/11/07 07:14:50;;;;;;;30.80;11.70;;;;;;;15.35;100.00;42570.34;5055372;28;20192;-64
2022/11/07 07:17:19;;;;;;;10.13;9.07;;;;;;;15.18;100.00;43862.44;5073357;28;20208;-64
2022/11/07 07:19:46;;;;;;;27.13;23.80;;;;;;;15.28;100.00;48767.09;5073371;28;20189;-59
2022/11/07 07:22:14;;;;;;;8.70;6.97;;;;;;;15.47;100.00;55980.13;5073125;28;20223;-63
2022/11/07 07:24:43;;;;;;;10.37;6.27;;;;;;;15.30;100.00;69085.72;5073277;28;20623;-61
2022/11/07 07:27:13;;;;;;;23.87;10.00;;;;;;;15.55;100.00;76026.69;5073039;28;20213;-60
2022/11/07 07:29:42;;;;;;;8.30;6.17;;;;;;;15.39;100.00;92183.59;5072930;28;20636;-61
2022/11/07 07:32:12;;;;;;;6.53;5.77;;;;;;;15.63;100.00;103163.63;5072605;28;20234;-57
2022/11/07 07:34:39;;;;;;;14.57;6.27;;;;;;;15.80;100.00;108511.78;5072880;28;20247;-57
2022/11/07 07:37:06;;;;;;;10.53;5.73;;;;;;;15.90;100.00;137132.41;5072799;28;20259;-57
2022/11/07 07:39:36;;;;;;;5.37;4.87;;;;;;;15.63;100.00;148489.03;5072799;28;20646;-58
2022/11/07 07:42:05;;;;;;;16.10;5.43;;;;;;;15.88;100.00;150029.78;5072933;28;20654;-61
2022/11/07 07:44:32;;;;;;;8.47;5.30;;;;;;;16.17;100.00;150102.13;5072472;28;20206;-57
2022/11/07 07:46:59;;;;;;;10.17;5.40;;;;;;;16.26;100.00;150123.72;5072982;28;20674;-58
2022/11/07 07:49:27;;;;;;;8.20;5.07;;;;;;;16.33;100.00;150141.53;5066329;28;20679;-58
2022/11/07 07:51:55;;;;;;;5.43;4.97;;;;;;;16.21;100.00;150112.28;5049559;28;20197;-61
2022/11/07 07:54:22;;;;;;;9.60;5.30;;;;;;;16.34;100.00;150145.31;5072583;28;20200;-58
2022/11/07 07:56:49;;;;;;;9.80;5.50;;;;;;;16.41;100.00;150163.13;5044177;28;20549;-59
2022/11/07 07:59:16;;;;;;;13.17;4.70;;;;;;;16.53;100.00;150191.03;5032596;28;20186;-59
2022/11/07 08:01:43;;;;;;;15.53;5.33;;;;;;;16.51;100.00;150185.97;5042101;28;20204;-59
2022/11/07 08:04:11;;;;;;;8.27;5.87;;;;;;;16.90;100.00;150286.34;5072688;28;20631;-61
2022/11/07 08:06:40;;;;;;;5.00;4.60;;;;;;;16.98;100.00;150304.09;5058696;28;20221;-60
2022/11/07 08:09:09;;;;;;;7.73;5.57;;;;;;;17.04;100.00;150319.38;5036890;28;20554;-62
2022/11/07 08:11:38;;;;;;;14.07;5.37;;;;;;;17.16;100.00;150349.84;5032316;28;20692;-62
2022/11/07 08:14:05;;;;;;;5.30;4.90;;;;;;;17.16;100.00;150349.84;5041892;28;20216;-59
2022/11/07 08:16:31;;;;;;;5.53;5.07;;;;;;;17.36;100.00;150400.66;5039594;28;20609;-60
2022/11/07 08:18:58;;;;;;;5.20;4.80;;;;;;;17.32;100.00;150391.78;5066445;28;20554;-60
2022/11/07 08:21:26;;;;;;;6.57;5.77;;;;;;;17.36;100.00;150400.66;5072421;28;20537;-59
2022/11/07 08:23:55;;;;;;;10.87;5.67;;;;;;;17.40;100.00;150410.81;5072010;28;20189;-60
2022/11/07 08:26:22;;;;;;;5.87;4.87;;;;;;;17.48;100.00;150431.19;5070073;28;20303;-59
2022/11/07 08:28:53;;;;;;;6.37;5.77;;;;;;;17.45;100.00;150422.25;5048157;28;20203;-59
2022/11/07 08:31:21;;;;;;;6.20;4.83;;;;;;;17.48;100.00;150431.19;5037149;28;20239;-60
2022/11/07 08:33:51;;;;;;;8.30;4.87;;;;;;;17.54;100.00;150446.41;5052807;28;20572;-60
2022/11/07 08:36:18;;;;;;;6.70;5.20;;;;;;;17.24;100.00;150370.16;5063756;28;20698;-59
2022/11/07 08:38:46;;;;;;;5.47;4.30;;;;;;;17.24;100.00;150370.16;5064968;28;20189;-62
2022/11/07 08:41:17;;;;;;;10.23;4.73;;;;;;;17.14;100.00;150344.78;5055290;28;20197;-61
2022/11/07 08:43:46;;;;;;;6.37;4.10;;;;;;;17.18;100.00;150354.94;5072471;28;20247;-60
2022/11/07 08:46:13;;;;;;;9.43;4.37;;;;;;;17.15;100.00;150348.56;5071712;28;20239;-58
2022/11/07 08:48:40;;;;;;;8.43;4.90;;;;;;;17.28;100.00;150380.34;5071621;28;20185;-59
2022/11/07 08:51:07;;;;;;;7.93;5.10;;;;;;;17.22;100.00;150366.41;5071942;28;20191;-62
2022/11/07 08:53:35;;;;;;;5.90;4.40;;;;;;;17.08;100.00;150329.53;5071521;28;20185;-62
2022/11/07 08:56:07;;;;;;;10.93;4.00;;;;;;;17.30;100.00;150385.44;5071997;28;20197;-60
2022/11/07 08:58:39;;;;;;;5.73;4.20;;;;;;;17.38;100.00;150405.75;5071509;28;20691;-61
2022/11/07 09:01:09;;;;;;;4.83;4.37;;;;;;;17.47;100.00;150427.38;5072630;28;20189;-63
2022/11/07 09:03:40;;;;;;;10.97;4.03;;;;;;;17.38;100.00;150404.50;5071331;28;20204;-65
2022/11/07 09:06:09;;;;;;;7.60;5.67;;;;;;;17.46;100.00;150426.09;5043564;28;20323;-65
2022/11/07 09:08:36;;;;;;;6.03;3.80;;;;;;;17.29;100.00;150384.16;5046200;28;20224;-63
2022/11/07 09:11:05;;;;;;;6.50;4.10;;;;;;;17.31;100.00;150389.22;5046280;28;20568;-62
2022/11/07 09:13:33;;;;;;;8.93;4.43;;;;;;;17.24;100.00;150370.16;5051477;28;20200;-59
2022/11/07 09:16:19;;;;;;;4.13;3.73;;;;;;;17.41;100.00;150412.09;5043186;28;20196;-60
2022/11/07 09:18:50;;;;;;;4.13;3.83;;;;;;;16.99;100.00;150307.94;5050914;28;20568;-62
2022/11/07 09:21:44;;;;;;;4.97;3.53;;;;;;;16.71;100.00;150238.09;5052035;28;20280;-59
2022/11/07 09:27:24;;;;;;;4.23;3.83;;;;;;;16.63;100.00;150216.50;5056222;28;20269;-65
2022/11/07 09:29:52;;;;;;;6.97;4.33;;;;;;;16.97;100.00;150301.59;5051287;28;20193;-61
2022/11/07 09:32:20;;;;;;;4.93;4.30;;;;;;;17.22;100.00;150365.13;5064550;28;20228;-59
2022/11/07 09:34:53;;;;;;;12.83;4.00;;;;;;;17.29;100.00;150382.88;5071352;28;20790;-59
2022/11/07 09:37:21;;;;;;;8.33;3.33;;;;;;;17.30;100.00;150385.44;5071167;28;20192;-56
2022/11/07 09:39:50;;;;;;;3.40;3.20;;;;;;;17.34;100.00;150396.88;5053144;28;20606;-57
2022/11/07 09:42:47;;;;;;;4.27;3.97;;;;;;;18.76;100.00;150751.63;5055248;28;20205;-64
2022/11/07 09:45:14;;;;;;;3.70;3.50;;;;;;;20.14;100.00;151100.41;5055109;28;20185;-58
2022/11/07 09:47:46;;;;;;;3.60;3.30;;;;;;;18.79;100.00;150759.28;5054823;28;20317;-60
2022/11/07 09:50:17;;;;;;;7.47;3.67;;;;;;;19.22;100.00;150867.44;5055159;28;20285;-58
2022/11/07 09:53:01;;;;;;;4.37;2.93;;;;;;;20.44;100.00;151175.56;5055586;28;20616;-60
2022/11/07 09:55:53;;;;;;;3.37;3.17;;;;;;;20.78;100.00;151262.19;5066488;28;20647;-61
2022/11/07 09:58:30;;;;;;;3.22;2.90;;;;;;;21.55;100.00;151455.91;5074038;28;20701;-61
2022/11/07 10:01:00;;;;;;;3.13;2.95;;;;;;;22.58;92.51;151714.72;5072163;28;20672;-59
2022/11/07 10:03:29;;;;;;;3.05;2.58;;;;;;;23.60;83.86;151973.81;5073908;28;20203;-61
2022/11/07 10:06:08;;;;;;;3.38;3.13;;;;;;;25.17;76.36;152368.47;5073679;28;20196;-62
2022/11/07 10:08:44;;;;;;;4.28;2.80;;;;;;;25.32;72.33;152406.81;5071507;28;20659;-60
2022/11/07 10:11:16;;;;;;;3.65;2.70;;;;;;;26.57;66.85;152723.91;5072551;28;20279;-62
2022/11/07 10:14:04;;;;;;;4.18;2.90;;;;;;;27.98;58.20;153079.66;5072142;28;20206;-62
2022/11/07 10:16:46;;;;;;;7.00;3.83;;;;;;;27.38;59.07;152927.31;5072407;28;20193;-57
2022/11/07 10:19:27;;;;;;;5.47;3.38;;;;;;;26.25;65.70;152643.38;5072556;28;20283;-60
2022/11/07 10:22:05;;;;;;;8.40;3.80;;;;;;;25.06;73.74;152340.38;5054184;28;20196;-58
2022/11/07 10:24:46;;;;;;;5.60;3.42;;;;;;;23.88;78.35;152044.03;5054916;28;20220;-58
2022/11/07 10:27:14;;;;;;;3.50;3.28;;;;;;;23.15;84.57;151860.22;5060355;28;20216;-60
2022/11/07 10:29:46;;;;;;;3.40;3.15;;;;;;;22.87;87.17;151787.50;5074504;28;20195;-60
2022/11/07 10:32:21;;;;;;;4.43;3.25;;;;;;;23.00;88.56;151820.69;5074881;28;20236;-57
2022/11/07 10:34:57;;;;;;;3.60;2.92;;;;;;;24.42;76.71;152179.41;5073514;28;20631;-60
2022/11/07 10:37:24;;;;;;;3.60;2.83;;;;;;;27.06;65.23;152848.03;5071911;28;20203;-58
2022/11/07 10:39:51;;;;;;;4.68;2.20;;;;;;;26.94;56.85;152817.34;5073273;28;20272;-58
2022/11/07 10:42:21;;;;;;;2.67;2.58;;;;;;;26.76;58.31;152772.53;5073464;28;20234;-59
2022/11/07 10:44:49;;;;;;;3.03;2.83;;;;;;;26.07;60.65;152597.28;5073462;28;20223;-63
2022/11/07 10:47:17;;;;;;;3.00;2.80;;;;;;;26.63;57.33;152737.97;5073354;28;20224;-57
2022/11/07 10:49:56;;;;;;;2.95;2.85;;;;;;;25.39;59.95;152425.97;5074003;28;20211;-59
2022/11/07 10:52:24;;;;;;;2.60;2.50;;;;;;;26.14;60.02;152613.94;5073730;28;20192;-60
2022/11/07 10:55:04;;;;;;;6.15;2.45;;;;;;;26.55;56.40;152718.81;5073623;28;20201;-59
2022/11/07 10:57:34;;;;;;;3.47;2.47;;;;;;;27.95;52.68;153073.28;5073228;28;20180;-61
2022/11/07 11:00:02;;;;;;;2.33;2.20;;;;;;;29.48;48.82;153461.41;5053557;28;20232;-61
2022/11/07 11:02:32;;;;;;;3.38;2.45;;;;;;;29.58;47.20;153484.47;5053094;28;20205;-58
2022/11/07 11:05:02;;;;;;;3.97;2.72;;;;;;;29.67;45.48;153507.47;5053209;28;20186;-58
2022/11/07 11:07:35;;;;;;;2.83;2.70;;;;;;;26.47;54.30;152697.06;5053043;28;20209;-58
2022/11/07 11:10:03;;;;;;;3.85;2.92;;;;;;;26.44;57.80;152690.66;5053315;28;20208;-60
2022/11/07 11:12:33;;;;;;;4.53;2.95;;;;;;;26.25;56.66;152643.38;5052962;28;20181;-56
2022/11/07 11:15:07;;;;;;;3.50;2.72;;;;;;;24.97;60.17;152319.94;5053851;28;20185;-60
2022/11/07 11:17:37;;;;;;;2.97;2.70;;;;;;;22.73;71.47;151753.06;5052871;28;20193;-61
2022/11/07 11:20:08;;;;;;;3.25;2.47;;;;;;;21.65;82.23;151480.09;5052941;28;20228;-58
2022/11/07 11:22:42;;;;;;;2.72;2.63;;;;;;;21.69;84.40;151491.56;5052787;28;20186;-60
2022/11/07 11:25:18;;;;;;;3.03;2.83;;;;;;;21.52;88.89;151446.94;5052851;28;20235;-58
2022/11/07 11:27:48;;;;;;;5.00;2.90;;;;;;;21.13;91.64;151350.09;5052831;28;20205;-62
2022/11/07 11:30:18;;;;;;;6.63;3.75;;;;;;;20.75;95.64;151253.28;5052735;28;20190;-59
2022/11/07 11:32:52;;;;;;;3.50;2.60;;;;;;;20.55;94.57;151203.56;5052527;28;20255;-62
2022/11/07 11:35:34;;;;;;;19.70;3.60;;;;;;;20.25;95.60;151128.38;5052718;28;20205;-58
2022/11/07 11:38:08;;;;;;;14.03;4.03;;;;;;;19.87;97.74;151032.91;5052826;28;20185;-59
2022/11/07 11:40:40;;;;;;;3.20;3.00;;;;;;;19.84;98.78;151024.00;5052445;28;20206;-57
2022/11/07 11:43:19;;;;;;;4.03;3.67;;;;;;;19.33;100.00;150896.69;5052688;28;20189;-59
2022/11/07 11:45:59;;;;;;;2.60;2.50;;;;;;;19.10;100.00;150838.13;5052489;28;20208;-58